Lawndale, Pennsylvania
Current Conditions -  °F | °C
As of 7:54 PM on Monday 26 Jan 2015 (Local Time) from KPNE Reporting Station
Light Snow Light Snow  
Wind Chill: 16°   Ceiling: 1600
Heat Index: 28°   Visibility: 4mi
Dew Point: 20°   Wind: 17mph
Humidity: 72%   Direction: 30°NNE
Pressure: 29.78"   Gusts: 25mph
Location:  40.063°N, 75.0797°W
Report Text: KPNE 270054Z AUTO 03015G22KT 4SM -SN BKN016 OVC023 M02/M07 A2978 RMK AO2 PK WND 03026/0026 UPB2355E17SNB21 SLP084 P0000 T10221067 TSNO
Loading
Personal Weather Stations






























Interactive Weather Map New forecast layout! Learn more

10-Day Weather Forecast

Advertisements
Track Severe Weather on mobile